Time;durP1;ratioP1;P1;durP2;ratioP2;P2;SDS_P1;SDS_P2;PMS_P1;PMS_P2;Temp;Humidity;BMP_temperature;BMP_pressure;BME280_temperature;BME280_humidity;BME280_pressure;Samples;Min_cycle;Max_cycle;Signal;HPM_P1;HPM_P2
2022/01/24 00:00:12;;;;;;;4.05;3.17;;;7.40;99.90;;;;;;5024400;28;20057;-76
2022/01/24 00:02:38;;;;;;;3.13;2.85;;;7.70;99.90;;;;;;5036231;28;20044;-76
2022/01/24 00:05:05;;;;;;;4.53;3.30;;;7.30;99.90;;;;;;5030297;28;20037;-76
2022/01/24 00:07:32;;;;;;;4.30;3.15;;;7.30;99.90;;;;;;5034158;28;20049;-76
2022/01/24 00:10:00;;;;;;;4.57;2.97;;;7.30;99.90;;;;;;5065347;28;20044;-76
2022/01/24 00:12:34;;;;;;;3.33;2.80;;;7.30;99.90;;;;;;5032902;28;20491;-76
2022/01/24 00:28:04;;;;;;;3.55;3.00;;;7.20;99.90;;;;;;5033921;28;20060;-76
2022/01/24 00:30:30;;;;;;;5.88;3.33;;;7.20;99.90;;;;;;5036486;28;20085;-76
2022/01/24 00:32:55;;;;;;;4.90;3.22;;;7.20;99.90;;;;;;5035839;28;20386;-76
2022/01/24 00:35:21;;;;;;;3.00;2.65;;;7.20;99.90;;;;;;5034271;28;20052;-76
2022/01/24 00:37:46;;;;;;;4.00;2.78;;;7.20;99.90;;;;;;5036066;28;20060;-76
2022/01/24 00:40:12;;;;;;;5.15;3.47;;;7.20;99.90;;;;;;5036081;28;20061;-76
2022/01/24 00:42:53;;;;;;;3.40;3.10;;;7.20;99.90;;;;;;5036669;28;20063;-76
2022/01/24 00:45:31;;;;;;;4.13;3.05;;;7.20;99.90;;;;;;5034778;28;20405;-76
2022/01/24 00:55:41;;;;;;;4.55;3.22;;;7.50;99.90;;;;;;5034936;28;20057;-75
2022/01/24 00:58:06;;;;;;;3.95;3.63;;;7.10;99.90;;;;;;5034374;28;20044;-75
2022/01/24 01:00:32;;;;;;;6.32;4.25;;;7.10;99.90;;;;;;5034219;28;20044;-75
2022/01/24 01:02:58;;;;;;;3.85;3.45;;;7.10;99.90;;;;;;5031680;28;20048;-75
2022/01/24 01:18:04;;;;;;;4.78;3.53;;;7.10;99.90;;;;;;5039059;28;20049;-76
2022/01/24 01:18:59;;;;;;;4.57;4.10;;;7.00;99.90;;;;;;5040110;28;20063;-75
2022/01/24 01:21:26;;;;;;;6.15;4.57;;;6.90;99.90;;;;;;5035386;28;20053;-75
2022/01/24 01:23:56;;;;;;;4.18;3.60;;;7.00;99.90;;;;;;5035226;28;20132;-75
2022/01/24 01:26:38;;;;;;;6.15;4.25;;;6.90;99.90;;;;;;5038402;28;20080;-76
2022/01/24 01:29:17;;;;;;;4.72;4.03;;;6.90;99.90;;;;;;5040656;28;20053;-76
2022/01/24 01:55:41;;;;;;;4.88;3.65;;;6.90;99.90;;;;;;5039421;28;20052;-75
2022/01/24 01:58:13;;;;;;;3.42;2.97;;;6.90;99.90;;;;;;5039110;28;20053;-75
2022/01/24 02:00:42;;;;;;;5.65;3.65;;;6.90;99.90;;;;;;5037908;28;20847;-75
2022/01/24 02:03:08;;;;;;;4.05;3.50;;;6.90;99.90;;;;;;5038236;28;20163;-75
2022/01/24 02:05:34;;;;;;;4.55;3.60;;;6.90;99.90;;;;;;5040009;28;20178;-75
2022/01/24 02:08:00;;;;;;;5.68;3.53;;;7.00;99.90;;;;;;5038914;28;20602;-75
2022/01/24 02:10:26;;;;;;;5.00;3.60;;;7.00;99.90;;;;;;5038882;28;20115;-74
2022/01/24 02:12:54;;;;;;;6.47;3.80;;;6.90;99.90;;;;;;5037937;28;20522;-75
2022/01/24 02:15:38;;;;;;;4.85;4.15;;;6.80;99.90;;;;;;5038901;28;20717;-74
2022/01/24 02:25:51;;;;;;;7.25;4.85;;;6.70;99.90;;;;;;5037275;28;20094;-74
2022/01/24 02:28:19;;;;;;;5.30;4.25;;;6.70;99.90;;;;;;5038938;28;20083;-74
2022/01/24 02:33:21;;;;;;;8.43;5.22;;;6.70;99.90;;;;;;5038826;28;20056;-75
2022/01/24 02:35:47;;;;;;;6.78;4.50;;;6.70;99.90;;;;;;5036593;28;20047;-74
2022/01/24 02:39:07;;;;;;;6.68;4.78;;;6.70;99.90;;;;;;5038967;28;20116;-75
2022/01/24 02:49:14;;;;;;;5.47;4.55;;;6.80;99.90;;;;;;5036509;28;20571;-74
2022/01/24 02:51:46;;;;;;;6.88;5.20;;;6.80;99.90;;;;;;5039042;28;20098;-75
2022/01/24 02:54:21;;;;;;;5.95;4.93;;;6.70;99.90;;;;;;5036969;28;20053;-75
2022/01/24 02:56:47;;;;;;;7.05;4.68;;;6.80;99.90;;;;;;5033598;28;20600;-74
2022/01/24 02:59:13;;;;;;;8.32;5.13;;;6.80;99.90;;;;;;5036038;28;20152;-75
2022/01/24 03:01:43;;;;;;;6.30;4.75;;;6.80;99.90;;;;;;5038265;28;20416;-74
2022/01/24 03:04:09;;;;;;;8.00;5.45;;;6.80;99.90;;;;;;5037820;28;20056;-74
2022/01/24 03:06:36;;;;;;;9.43;6.15;;;6.80;99.90;;;;;;5036870;28;20162;-75
2022/01/24 03:09:02;;;;;;;9.27;5.55;;;6.80;99.90;;;;;;5038664;28;20123;-75
2022/01/24 03:11:48;;;;;;;10.30;5.95;;;6.80;99.90;;;;;;5036586;28;20053;-74
2022/01/24 03:14:13;;;;;;;5.65;5.07;;;6.70;99.90;;;;;;5038175;28;20579;-75
2022/01/24 03:16:39;;;;;;;6.80;4.30;;;6.70;99.90;;;;;;5036775;28;20044;-74
2022/01/24 03:19:05;;;;;;;8.18;4.95;;;6.60;99.90;;;;;;5032348;28;20053;-74
2022/01/24 03:21:30;;;;;;;5.93;4.88;;;6.60;99.90;;;;;;5037380;28;20057;-75
2022/01/24 03:23:56;;;;;;;8.63;5.55;;;6.60;99.90;;;;;;5035978;28;20049;-75
2022/01/24 03:26:21;;;;;;;6.55;4.57;;;6.70;99.90;;;;;;5037325;28;20153;-75
2022/01/24 03:28:47;;;;;;;5.50;5.00;;;6.70;99.90;;;;;;5036067;28;20056;-74
2022/01/24 03:31:12;;;;;;;5.97;5.13;;;6.70;99.90;;;;;;5037443;28;20075;-74
2022/01/24 03:33:38;;;;;;;9.55;5.28;;;6.70;99.90;;;;;;5038283;28;20120;-74
2022/01/24 03:36:04;;;;;;;9.30;4.88;;;6.70;99.90;;;;;;5036608;28;20801;-74
2022/01/24 03:38:29;;;;;;;6.70;5.07;;;6.70;99.90;;;;;;5036326;28;20096;-73
2022/01/24 03:40:55;;;;;;;6.70;5.25;;;6.70;99.90;;;;;;5036518;28;20049;-74
2022/01/24 03:43:20;;;;;;;6.78;5.43;;;6.80;99.90;;;;;;5035877;28;20102;-74
2022/01/24 03:45:58;;;;;;;6.10;5.18;;;6.80;99.90;;;;;;5037165;28;20310;-74
2022/01/24 03:48:38;;;;;;;6.50;5.72;;;6.80;99.90;;;;;;5036205;28;20076;-74
2022/01/24 03:51:04;;;;;;;8.25;4.80;;;6.80;99.90;;;;;;5037813;28;20060;-75
2022/01/24 03:53:29;;;;;;;6.93;6.22;;;6.80;99.90;;;;;;5036550;28;20037;-74
2022/01/24 03:55:55;;;;;;;7.72;5.50;;;6.90;99.90;;;;;;5035988;28;20166;-73
2022/01/24 03:58:20;;;;;;;8.15;5.65;;;6.90;99.90;;;;;;5036509;28;20127;-74
2022/01/24 04:00:46;;;;;;;9.80;5.10;;;6.80;99.90;;;;;;5035179;28;20052;-74
2022/01/24 04:03:14;;;;;;;7.57;6.25;;;6.90;99.90;;;;;;5036337;28;20068;-74
2022/01/24 04:05:39;;;;;;;6.65;4.97;;;6.80;99.90;;;;;;5035456;28;20041;-74
2022/01/24 04:08:05;;;;;;;9.05;6.15;;;6.90;99.90;;;;;;5036998;28;20084;-74
2022/01/24 04:10:39;;;;;;;9.70;6.63;;;6.90;99.90;;;;;;5036111;28;20053;-74
2022/01/24 04:13:22;;;;;;;8.82;5.82;;;6.80;99.90;;;;;;5036064;28;20866;-74
2022/01/24 04:23:49;;;;;;;10.00;6.50;;;6.90;99.90;;;;;;5035490;28;20103;-74
2022/01/24 04:26:15;;;;;;;8.70;6.50;;;6.90;99.90;;;;;;5037588;28;20106;-74
2022/01/24 04:28:41;;;;;;;10.18;5.90;;;6.90;99.90;;;;;;5035715;28;20900;-74
2022/01/24 04:31:06;;;;;;;11.82;7.38;;;6.90;99.90;;;;;;5037699;28;20047;-74
2022/01/24 04:33:32;;;;;;;10.50;6.55;;;6.90;99.90;;;;;;5036413;28;20047;-74
2022/01/24 04:35:58;;;;;;;8.07;5.53;;;6.90;99.90;;;;;;5035583;28;20053;-74
2022/01/24 04:38:24;;;;;;;11.18;7.75;;;6.80;99.90;;;;;;5037550;28;20059;-74
2022/01/24 04:40:50;;;;;;;12.20;7.22;;;6.90;99.90;;;;;;5035193;28;20049;-74
2022/01/24 04:43:50;;;;;;;13.90;7.68;;;6.90;99.90;;;;;;5036054;28;20057;-74
2022/01/24 04:46:41;;;;;;;14.70;8.32;;;6.80;99.90;;;;;;5037492;28;20065;-73
2022/01/24 04:56:57;;;;;;;9.85;5.78;;;6.70;99.90;;;;;;5035457;28;20049;-74
2022/01/24 04:59:22;;;;;;;12.60;8.27;;;6.70;99.90;;;;;;5035978;28;20064;-73
2022/01/24 05:01:48;;;;;;;11.40;7.25;;;6.60;99.90;;;;;;5036956;28;20245;-74
2022/01/24 05:04:14;;;;;;;11.85;7.75;;;6.70;99.90;;;;;;5035100;28;20076;-74
2022/01/24 05:06:39;;;;;;;12.52;9.07;;;6.70;99.90;;;;;;5037369;28;20065;-73
2022/01/24 05:09:06;;;;;;;12.02;9.27;;;6.70;99.90;;;;;;5036487;28;20037;-73
2022/01/24 05:11:42;;;;;;;10.55;6.97;;;6.70;99.90;;;;;;5037771;28;20152;-74
2022/01/24 05:24:46;;;;;;;16.88;9.68;;;6.70;99.90;;;;;;5035843;28;20056;-74
2022/01/24 05:27:12;;;;;;;13.68;8.75;;;6.70;99.90;;;;;;5036385;28;20060;-74
2022/01/24 05:29:37;;;;;;;10.65;7.90;;;6.70;99.90;;;;;;5037087;28;20060;-74
2022/01/24 05:32:05;;;;;;;13.95;8.25;;;6.70;99.90;;;;;;5036304;28;20045;-74
2022/01/24 05:34:31;;;;;;;12.05;8.05;;;6.70;99.90;;;;;;5036703;28;20535;-74
2022/01/24 05:36:56;;;;;;;11.63;7.68;;;6.70;99.90;;;;;;5036252;28;20045;-74
2022/01/24 05:39:22;;;;;;;12.40;7.63;;;6.70;99.90;;;;;;5036442;28;20159;-74
2022/01/24 05:41:47;;;;;;;12.23;8.27;;;6.70;99.90;;;;;;5036807;28;20051;-74
2022/01/24 05:44:13;;;;;;;10.85;8.15;;;6.70;99.90;;;;;;5034350;28;20138;-75
2022/01/24 05:46:39;;;;;;;10.30;8.52;;;6.70;99.90;;;;;;5034174;28;20073;-73
2022/01/24 05:49:04;;;;;;;11.98;8.45;;;6.70;99.90;;;;;;5035583;28;20682;-74
2022/01/24 05:51:30;;;;;;;12.88;8.48;;;6.70;99.90;;;;;;5034150;28;20056;-74
2022/01/24 05:53:57;;;;;;;13.25;7.95;;;6.70;99.90;;;;;;5036764;28;20491;-74
2022/01/24 05:56:23;;;;;;;13.32;9.27;;;6.70;99.90;;;;;;5040113;28;20063;-74
2022/01/24 05:58:49;;;;;;;11.23;7.47;;;6.80;99.90;;;;;;5039073;28;20880;-74
2022/01/24 06:01:15;;;;;;;14.90;7.57;;;6.80;99.90;;;;;;5039598;28;20159;-74
2022/01/24 06:03:40;;;;;;;11.20;7.60;;;6.80;99.90;;;;;;5039466;28;20143;-73
2022/01/24 06:06:08;;;;;;;10.90;7.07;;;6.80;99.90;;;;;;5037668;28;20810;-73
2022/01/24 06:08:34;;;;;;;10.48;6.63;;;6.80;99.90;;;;;;5034430;28;20076;-73
2022/01/24 06:11:00;;;;;;;10.40;7.22;;;6.80;99.90;;;;;;5032295;28;20790;-74
2022/01/24 06:13:26;;;;;;;10.27;7.82;;;6.70;99.90;;;;;;5060276;28;20048;-74
2022/01/24 06:15:52;;;;;;;13.05;6.85;;;6.60;99.90;;;;;;5031614;28;20049;-74
2022/01/24 06:18:18;;;;;;;12.10;7.40;;;6.60;99.90;;;;;;5031264;28;20567;-74
2022/01/24 06:20:47;;;;;;;9.65;6.80;;;6.60;99.90;;;;;;5060934;28;20072;-75
2022/01/24 06:23:16;;;;;;;9.23;6.40;;;6.70;99.90;;;;;;5035360;28;20778;-75
2022/01/24 06:25:43;;;;;;;12.93;7.22;;;6.70;99.90;;;;;;5037641;28;20048;-75
2022/01/24 06:28:09;;;;;;;7.28;5.13;;;6.70;99.90;;;;;;5032260;28;20070;-74
2022/01/24 06:30:34;;;;;;;9.07;6.88;;;6.70;99.90;;;;;;5034021;28;20867;-74
2022/01/24 06:33:00;;;;;;;10.45;8.18;;;6.80;99.90;;;;;;5031487;28;20033;-73
2022/01/24 06:35:26;;;;;;;10.75;7.50;;;6.70;99.90;;;;;;5068551;28;20076;-74
2022/01/24 06:37:52;;;;;;;11.75;7.55;;;6.80;99.90;;;;;;5031269;28;20544;-74
2022/01/24 06:40:17;;;;;;;13.07;8.20;;;6.70;99.90;;;;;;5032697;28;20045;-73
2022/01/24 06:42:43;;;;;;;10.07;6.88;;;6.70;99.90;;;;;;5031340;28;20487;-73
2022/01/24 06:45:10;;;;;;;11.60;7.63;;;6.70;99.90;;;;;;5031324;28;20554;-74
2022/01/24 06:47:37;;;;;;;11.02;7.32;;;6.60;99.90;;;;;;5029141;28;20412;-74
2022/01/24 06:50:04;;;;;;;12.68;8.85;;;6.70;99.90;;;;;;5038889;28;20049;-74
2022/01/24 06:52:30;;;;;;;9.10;6.90;;;6.70;99.90;;;;;;5036804;28;20571;-74
2022/01/24 06:54:55;;;;;;;12.23;7.45;;;6.70;99.90;;;;;;5037217;28;20051;-75
2022/01/24 06:57:21;;;;;;;14.30;7.93;;;6.70;99.90;;;;;;5037685;28;20500;-75
2022/01/24 06:59:47;;;;;;;10.43;8.20;;;6.70;99.90;;;;;;5039881;28;20134;-75
2022/01/24 07:02:13;;;;;;;10.48;7.32;;;6.80;99.90;;;;;;5036287;28;20139;-75
2022/01/24 07:04:41;;;;;;;12.82;8.40;;;6.80;99.90;;;;;;5039400;28;20080;-75
2022/01/24 07:07:08;;;;;;;15.00;7.97;;;6.80;99.90;;;;;;5070485;28;20045;-75
2022/01/24 07:09:34;;;;;;;10.95;7.32;;;6.80;99.90;;;;;;5038237;28;20770;-75
2022/01/24 07:12:00;;;;;;;9.85;7.43;;;6.80;99.90;;;;;;5037200;28;20052;-74
2022/01/24 07:14:25;;;;;;;10.68;7.22;;;6.80;99.90;;;;;;5038938;28;20045;-75
2022/01/24 07:19:28;;;;;;;19.67;8.18;;;6.70;99.90;;;;;;5039190;28;20049;-75
2022/01/24 07:21:54;;;;;;;10.52;7.03;;;6.80;99.90;;;;;;5035644;28;20099;-74
2022/01/24 07:24:20;;;;;;;11.00;6.63;;;6.80;99.90;;;;;;5038211;28;20045;-75
2022/01/24 07:26:46;;;;;;;13.68;8.18;;;6.80;99.90;;;;;;5033700;28;20075;-75
2022/01/24 07:29:11;;;;;;;14.93;8.57;;;6.80;99.90;;;;;;5034369;28;20049;-75
2022/01/24 07:31:37;;;;;;;12.18;8.20;;;6.80;99.90;;;;;;5067147;28;20116;-75
2022/01/24 07:34:02;;;;;;;10.07;7.57;;;6.80;99.90;;;;;;5035012;28;20575;-75
2022/01/24 07:36:28;;;;;;;13.18;8.30;;;6.80;99.90;;;;;;5034482;28;20797;-75
2022/01/24 07:38:54;;;;;;;11.95;8.52;;;6.80;99.90;;;;;;5035184;28;20427;-75
2022/01/24 07:41:26;;;;;;;12.95;9.40;;;6.80;99.90;;;;;;5034042;28;20052;-75
2022/01/24 07:43:52;;;;;;;11.02;8.32;;;6.90;99.90;;;;;;5066113;28;20596;-75
2022/01/24 07:46:17;;;;;;;15.98;9.45;;;6.90;99.90;;;;;;5033606;28;20055;-74
2022/01/24 07:48:43;;;;;;;13.70;8.23;;;6.90;99.90;;;;;;5032171;28;20053;-75
2022/01/24 07:51:09;;;;;;;13.23;9.02;;;6.90;99.90;;;;;;5064513;28;20066;-75
2022/01/24 07:53:35;;;;;;;15.50;9.57;;;6.90;99.90;;;;;;5033288;28;20730;-75
2022/01/24 07:56:00;;;;;;;17.98;9.40;;;6.90;99.90;;;;;;5032037;28;20041;-75
2022/01/24 07:58:28;;;;;;;11.25;8.68;;;6.90;99.90;;;;;;5066051;28;20111;-75
2022/01/24 08:00:53;;;;;;;12.93;8.18;;;6.90;99.90;;;;;;5028149;28;20049;-75
2022/01/24 08:03:19;;;;;;;14.00;9.40;;;6.90;99.90;;;;;;4705387;28;10000718;-74
2022/01/24 08:05:45;;;;;;;15.05;8.85;;;6.90;99.90;;;;;;4683103;28;10000244;-75
2022/01/24 08:08:10;;;;;;;11.57;7.72;;;6.90;99.90;;;;;;5031423;28;20056;-76
2022/01/24 08:10:36;;;;;;;13.13;7.97;;;6.90;99.90;;;;;;5033534;28;20663;-74
2022/01/24 08:13:02;;;;;;;18.27;9.95;;;6.90;99.90;;;;;;5033088;28;20098;-75
2022/01/24 08:15:28;;;;;;;14.13;8.18;;;6.90;99.90;;;;;;5067656;28;20055;-76
2022/01/24 08:17:54;;;;;;;10.80;7.40;;;6.90;99.90;;;;;;5034654;28;20045;-76
2022/01/24 08:20:21;;;;;;;17.50;9.32;;;6.90;99.90;;;;;;5067488;28;20659;-77
2022/01/24 08:22:47;;;;;;;12.75;8.88;;;7.00;99.90;;;;;;5034997;28;20139;-77
2022/01/24 08:25:13;;;;;;;12.82;8.80;;;7.00;99.90;;;;;;5035502;28;20080;-77
2022/01/24 08:27:39;;;;;;;11.38;8.10;;;6.90;99.90;;;;;;5033378;28;20143;-77
2022/01/24 08:30:12;;;;;;;11.18;8.38;;;6.90;99.90;;;;;;5035315;28;20853;-76
2022/01/24 08:32:38;;;;;;;13.23;8.40;;;6.90;99.90;;;;;;5035447;28;20052;-76
2022/01/24 08:35:04;;;;;;;14.90;8.68;;;6.90;99.90;;;;;;5034844;28;20048;-76
2022/01/24 08:37:30;;;;;;;16.17;9.25;;;6.90;99.90;;;;;;5034545;28;20138;-75
2022/01/24 08:39:58;;;;;;;16.70;10.05;;;6.90;99.90;;;;;;5034716;28;20136;-76
2022/01/24 08:47:27;;;;;;;16.42;9.77;;;7.00;99.90;;;;;;5035074;28;20087;-75
2022/01/24 08:49:53;;;;;;;12.75;8.90;;;7.00;99.90;;;;;;5034102;28;20049;-75
2022/01/24 08:52:19;;;;;;;14.65;10.48;;;7.00;99.90;;;;;;5030120;28;20055;-76
2022/01/24 08:54:45;;;;;;;18.75;12.35;;;7.10;99.90;;;;;;5025908;28;20059;-76
2022/01/24 08:57:13;;;;;;;18.77;11.65;;;7.00;99.90;;;;;;5030038;28;20384;-76
2022/01/24 08:59:39;;;;;;;15.77;9.30;;;7.10;99.90;;;;;;5028899;28;20179;-76
2022/01/24 09:02:06;;;;;;;15.77;10.07;;;7.10;99.90;;;;;;5063531;28;20049;-76
2022/01/24 09:04:32;;;;;;;18.63;12.57;;;7.00;99.90;;;;;;5032184;28;20041;-77
2022/01/24 09:07:03;;;;;;;17.33;10.55;;;7.00;99.90;;;;;;5030369;28;20852;-76
2022/01/24 09:09:29;;;;;;;18.50;10.55;;;7.10;99.90;;;;;;5032047;28;20094;-76
2022/01/24 09:11:55;;;;;;;19.73;12.13;;;7.10;99.90;;;;;;5032518;28;20033;-77
2022/01/24 09:14:20;;;;;;;22.30;12.52;;;7.10;99.90;;;;;;5031431;28;20045;-77
2022/01/24 09:16:46;;;;;;;20.67;12.40;;;7.10;99.90;;;;;;5031620;28;20051;-77
2022/01/24 09:19:12;;;;;;;18.75;12.15;;;7.10;99.90;;;;;;4684986;28;10000644;-76
2022/01/24 09:21:38;;;;;;;19.73;12.70;;;7.10;99.90;;;;;;5034453;28;20316;-76
2022/01/24 09:24:05;;;;;;;18.70;11.45;;;7.10;99.90;;;;;;5032501;28;20464;-75
2022/01/24 09:26:31;;;;;;;21.27;13.55;;;7.00;99.90;;;;;;5033142;28;20045;-76
2022/01/24 09:28:56;;;;;;;21.85;12.07;;;7.00;99.90;;;;;;5036159;28;20049;-78
2022/01/24 09:31:22;;;;;;;24.58;13.00;;;7.10;99.90;;;;;;5036860;28;20045;-77
2022/01/24 09:33:49;;;;;;;24.33;13.40;;;7.10;99.90;;;;;;5040968;28;20067;-77
2022/01/24 09:36:15;;;;;;;21.15;13.70;;;7.10;99.90;;;;;;5040109;28;20060;-75
2022/01/24 09:38:40;;;;;;;26.05;14.57;;;7.10;99.90;;;;;;5040009;28;20064;-74
2022/01/24 09:41:07;;;;;;;22.25;14.38;;;7.10;99.90;;;;;;5039368;28;20845;-74
2022/01/24 09:43:33;;;;;;;24.17;12.95;;;7.10;99.90;;;;;;5038896;28;20041;-74
2022/01/24 09:45:59;;;;;;;23.63;15.18;;;7.20;99.90;;;;;;5040959;28;20155;-73
2022/01/24 09:48:26;;;;;;;24.73;15.30;;;7.20;99.90;;;;;;5039480;28;20568;-74
2022/01/24 09:50:53;;;;;;;26.92;13.68;;;7.20;99.90;;;;;;5039422;28;20190;-74
2022/01/24 09:53:20;;;;;;;29.15;15.90;;;7.20;99.90;;;;;;5038285;28;20056;-74
2022/01/24 09:55:46;;;;;;;29.25;17.85;;;7.20;99.90;;;;;;5038198;28;20057;-73
2022/01/24 09:58:12;;;;;;;26.52;15.43;;;7.10;99.90;;;;;;5038954;28;20052;-74
2022/01/24 10:00:38;;;;;;;27.48;16.90;;;7.10;99.90;;;;;;5040479;28;20136;-74
2022/01/24 10:03:06;;;;;;;26.08;15.10;;;7.10;99.90;;;;;;5040027;28;20639;-74
2022/01/24 10:05:37;;;;;;;32.42;17.42;;;7.00;99.90;;;;;;5040602;28;20056;-74
2022/01/24 10:08:05;;;;;;;30.98;18.02;;;7.00;99.90;;;;;;5040920;28;20179;-74
2022/01/24 10:10:41;;;;;;;29.02;17.35;;;7.00;99.90;;;;;;5039023;28;20052;-74
2022/01/24 10:16:25;;;;;;;31.55;17.52;;;7.10;99.90;;;;;;5039853;28;20083;-74
2022/01/24 10:19:03;;;;;;;34.65;18.05;;;7.20;99.90;;;;;;5038010;28;20057;-74
2022/01/24 10:21:28;;;;;;;34.10;19.20;;;7.10;99.90;;;;;;5039839;28;20044;-74
2022/01/24 10:23:56;;;;;;;33.72;19.70;;;7.10;99.90;;;;;;5040443;28;20563;-74
2022/01/24 10:26:24;;;;;;;32.17;20.65;;;7.20;99.90;;;;;;5038730;28;20120;-74
2022/01/24 10:28:50;;;;;;;40.88;21.05;;;7.20;99.90;;;;;;5040273;28;20531;-74
2022/01/24 10:31:24;;;;;;;37.97;21.52;;;7.20;99.90;;;;;;5038971;28;20075;-74
2022/01/24 10:34:18;;;;;;;41.15;23.05;;;7.30;99.90;;;;;;5040098;28;20814;-74
2022/01/24 10:36:52;;;;;;;35.50;21.17;;;7.20;99.90;;;;;;5040930;28;20060;-74
2022/01/24 10:45:20;;;;;;;38.90;26.67;;;7.30;99.90;;;;;;5040657;28;20500;-74
2022/01/24 10:47:49;;;;;;;43.33;24.42;;;7.30;99.90;;;;;;5039246;28;20048;-74
2022/01/24 10:50:24;;;;;;;45.35;27.10;;;7.30;99.90;;;;;;5038781;28;20080;-75
2022/01/24 10:52:52;;;;;;;44.15;25.30;;;7.30;99.90;;;;;;5038079;28;20595;-78
2022/01/24 10:55:24;;;;;;;43.97;26.30;;;7.30;99.90;;;;;;5034283;28;20052;-77
2022/01/24 10:57:55;;;;;;;39.15;22.15;;;7.30;99.90;;;;;;5035113;28;20045;-76
2022/01/24 11:00:27;;;;;;;42.25;25.63;;;7.30;99.90;;;;;;5035359;28;20669;-76
2022/01/24 11:02:54;;;;;;;52.60;27.63;;;7.40;99.90;;;;;;5034701;28;20620;-76
2022/01/24 11:05:26;;;;;;;44.72;24.83;;;7.40;99.90;;;;;;5034430;28;20126;-76
2022/01/24 11:07:58;;;;;;;47.17;26.83;;;7.40;99.90;;;;;;5033474;28;20045;-75
2022/01/24 11:10:30;;;;;;;46.90;27.73;;;7.30;99.90;;;;;;5036081;28;20056;-75
2022/01/24 11:12:57;;;;;;;46.10;27.40;;;7.40;99.90;;;;;;5037090;28;20098;-75
2022/01/24 11:15:24;;;;;;;36.78;24.75;;;7.40;99.90;;;;;;5033992;28;20049;-76
2022/01/24 11:17:51;;;;;;;45.20;26.88;;;7.50;99.90;;;;;;5036171;28;20135;-76
2022/01/24 11:20:18;;;;;;;48.90;26.02;;;7.50;99.90;;;;;;5035133;28;20391;-76
2022/01/24 11:22:52;;;;;;;45.30;26.10;;;7.50;99.90;;;;;;5035352;28;20048;-76
2022/01/24 11:25:18;;;;;;;46.00;26.80;;;7.40;99.90;;;;;;5036883;28;20052;-76
2022/01/24 11:27:47;;;;;;;37.30;22.88;;;7.40;99.90;;;;;;5035403;28;20056;-76
2022/01/24 11:30:23;;;;;;;41.63;24.23;;;7.30;99.90;;;;;;5035071;28;20155;-77
2022/01/24 11:32:55;;;;;;;43.17;23.08;;;7.40;99.90;;;;;;5032828;28;20049;-76
2022/01/24 11:35:30;;;;;;;44.28;27.85;;;7.40;99.90;;;;;;5033993;28;20049;-75
2022/01/24 11:37:57;;;;;;;40.63;25.00;;;7.40;99.90;;;;;;5031631;28;20844;-75
2022/01/24 11:40:25;;;;;;;47.17;25.27;;;7.40;99.90;;;;;;5035355;28;20885;-76
2022/01/24 11:42:52;;;;;;;46.88;26.88;;;7.50;99.90;;;;;;5033477;28;20515;-76
2022/01/24 11:45:42;;;;;;;44.53;23.90;;;7.40;99.90;;;;;;5034327;28;20060;-76
2022/01/24 11:48:20;;;;;;;45.25;25.73;;;7.40;99.90;;;;;;5033280;28;20045;-76
2022/01/24 11:51:07;;;;;;;45.72;26.52;;;7.40;99.90;;;;;;5033824;28;20057;-76
2022/01/24 11:53:37;;;;;;;37.45;23.73;;;7.30;99.90;;;;;;5032247;28;20215;-76
2022/01/24 11:56:18;;;;;;;41.78;24.30;;;7.30;99.90;;;;;;5032703;28;20044;-77
2022/01/24 11:58:44;;;;;;;39.45;23.95;;;7.40;99.90;;;;;;5034650;28;20049;-76
2022/01/24 12:01:14;;;;;;;32.78;19.58;;;7.40;99.90;;;;;;5036029;28;20771;-76
2022/01/24 12:03:51;;;;;;;39.60;20.98;;;7.50;99.90;;;;;;5034352;28;20055;-77
2022/01/24 12:06:19;;;;;;;42.20;22.75;;;7.40;99.90;;;;;;5032919;28;20045;-76
2022/01/24 12:08:47;;;;;;;45.20;24.50;;;7.40;99.90;;;;;;5035917;28;20071;-77
2022/01/24 12:11:19;;;;;;;41.83;21.90;;;7.40;99.90;;;;;;5034908;28;20152;-77
2022/01/24 12:13:53;;;;;;;42.78;22.95;;;7.40;99.90;;;;;;5034935;28;20106;-76
2022/01/24 12:16:19;;;;;;;37.65;22.17;;;7.40;99.90;;;;;;5035239;28;20048;-76
2022/01/24 12:18:47;;;;;;;41.38;23.98;;;7.30;99.90;;;;;;5029985;28;20166;-76
2022/01/24 12:21:17;;;;;;;41.85;22.23;;;7.40;99.90;;;;;;5033100;28;20056;-77
2022/01/24 12:23:47;;;;;;;36.75;21.48;;;7.40;99.90;;;;;;5035959;28;20066;-76
2022/01/24 12:26:13;;;;;;;35.17;21.27;;;7.40;99.90;;;;;;5033502;28;20084;-76
2022/01/24 12:28:41;;;;;;;34.75;20.52;;;7.30;99.90;;;;;;5034901;28;20178;-76
2022/01/24 12:31:11;;;;;;;29.80;19.40;;;7.40;99.90;;;;;;5034704;28;20503;-76
2022/01/24 12:33:41;;;;;;;39.63;21.38;;;7.30;99.90;;;;;;5035456;28;20056;-77
2022/01/24 12:36:13;;;;;;;30.75;18.50;;;7.30;99.90;;;;;;5034543;28;20136;-78
2022/01/24 12:38:39;;;;;;;27.80;17.70;;;7.30;99.90;;;;;;5034483;28;20053;-77
2022/01/24 12:41:27;;;;;;;27.77;18.17;;;7.20;99.90;;;;;;5035653;28;20056;-77
2022/01/24 12:46:29;;;;;;;27.13;15.45;;;7.10;99.90;;;;;;5034636;28;20864;-77
2022/01/24 12:49:00;;;;;;;26.90;17.02;;;7.20;99.90;;;;;;5034697;28;20102;-77
2022/01/24 12:51:27;;;;;;;26.63;16.60;;;7.20;99.90;;;;;;5036038;28;20071;-77
2022/01/24 12:53:53;;;;;;;25.02;14.13;;;7.20;99.90;;;;;;5034474;28;20044;-68
2022/01/24 12:56:29;;;;;;;30.30;20.05;;;7.30;99.90;;;;;;5034749;28;20074;-75
2022/01/24 12:58:56;;;;;;;27.88;18.10;;;7.30;99.90;;;;;;5032360;28;20044;-75
2022/01/24 13:01:26;;;;;;;36.20;20.70;;;7.30;99.90;;;;;;5035946;28;20056;-75
2022/01/24 13:03:54;;;;;;;31.38;18.55;;;7.30;99.90;;;;;;5036581;28;20105;-74
2022/01/24 13:06:21;;;;;;;29.92;19.02;;;7.30;99.90;;;;;;5070053;28;20084;-75
2022/01/24 13:08:57;;;;;;;30.52;18.17;;;7.30;99.90;;;;;;5069838;28;20052;-74
2022/01/24 13:11:24;;;;;;;28.08;18.10;;;7.30;99.90;;;;;;5039109;28;20080;-74
2022/01/24 13:14:09;;;;;;;31.35;17.23;;;7.30;99.90;;;;;;5036882;28;20045;-74
2022/01/24 13:22:52;;;;;;;32.30;19.67;;;7.30;99.90;;;;;;5037379;28;20048;-74
2022/01/24 13:25:25;;;;;;;29.05;18.67;;;7.30;99.90;;;;;;5036919;28;20099;-75
2022/01/24 13:28:03;;;;;;;23.48;16.17;;;7.20;99.90;;;;;;5070539;28;20044;-75
2022/01/24 13:30:31;;;;;;;29.15;19.00;;;7.20;99.90;;;;;;5034556;28;20110;-74
2022/01/24 13:32:59;;;;;;;36.78;21.95;;;7.20;99.90;;;;;;5038331;28;20122;-75
2022/01/24 13:35:33;;;;;;;29.92;18.67;;;7.30;99.90;;;;;;5033542;28;20049;-74
2022/01/24 13:38:04;;;;;;;30.17;18.45;;;7.30;99.90;;;;;;5036329;28;20045;-74
2022/01/24 13:40:57;;;;;;;32.42;18.33;;;7.40;99.90;;;;;;5033515;28;20053;-75
2022/01/24 13:43:36;;;;;;;29.17;16.95;;;7.30;99.90;;;;;;5035305;28;20045;-74
2022/01/24 13:46:05;;;;;;;30.58;19.45;;;7.30;99.90;;;;;;5036497;28;20593;-75
2022/01/24 13:48:48;;;;;;;34.47;18.35;;;7.30;99.90;;;;;;5035097;28;20083;-74
2022/01/24 13:51:18;;;;;;;34.63;20.10;;;7.20;99.90;;;;;;5026333;28;20130;-75
2022/01/24 13:53:53;;;;;;;24.92;15.63;;;7.30;99.90;;;;;;5033638;28;20045;-75
2022/01/24 13:56:32;;;;;;;26.30;16.15;;;7.20;99.90;;;;;;5036945;28;20098;-74
2022/01/24 13:59:26;;;;;;;26.77;16.65;;;7.10;99.90;;;;;;5035320;28;20106;-74
2022/01/24 14:02:13;;;;;;;24.45;16.38;;;7.10;99.90;;;;;;5034795;28;20045;-75
2022/01/24 14:04:48;;;;;;;24.42;17.33;;;7.00;99.90;;;;;;5067859;28;20684;-75
2022/01/24 14:07:16;;;;;;;31.08;17.27;;;7.00;99.90;;;;;;5035632;28;20052;-74
2022/01/24 14:09:55;;;;;;;27.60;17.75;;;7.00;99.90;;;;;;5035969;28;20052;-74
2022/01/24 14:12:24;;;;;;;29.20;17.80;;;7.00;99.90;;;;;;5034504;28;20498;-73
2022/01/24 14:15:09;;;;;;;33.10;19.77;;;7.00;99.90;;;;;;5067366;28;20053;-73
2022/01/24 14:20:13;;;;;;;24.75;16.85;;;7.00;99.90;;;;;;5029746;28;20053;-73
2022/01/24 14:22:46;;;;;;;28.90;18.38;;;6.90;99.90;;;;;;5031833;28;20473;-74
2022/01/24 14:25:21;;;;;;;33.63;18.25;;;6.80;99.90;;;;;;5031857;28;20052;-74
2022/01/24 14:27:58;;;;;;;31.10;18.83;;;6.90;99.90;;;;;;5032779;28;20049;-74
2022/01/24 14:30:27;;;;;;;29.38;19.55;;;6.90;99.90;;;;;;5033543;28;20053;-74
2022/01/24 14:33:09;;;;;;;25.65;15.75;;;6.80;99.90;;;;;;5063512;28;20560;-70
2022/01/24 14:35:39;;;;;;;29.55;18.60;;;7.00;99.90;;;;;;5031256;28;20076;-78
2022/01/24 14:38:07;;;;;;;26.77;17.23;;;7.10;99.90;;;;;;5034932;28;20041;-74
2022/01/24 14:40:34;;;;;;;25.48;15.98;;;7.00;99.90;;;;;;5034800;28;20037;-73
2022/01/24 14:44:53;;;;;;;25.40;16.52;;;7.00;99.90;;;;;;5034355;28;20049;-73
2022/01/24 14:45:45;;;;;;;31.08;19.30;;;7.10;99.90;;;;;;5036661;28;20045;-74
2022/01/24 14:48:12;;;;;;;31.63;18.98;;;7.10;99.90;;;;;;5035973;28;20079;-74
2022/01/24 14:50:38;;;;;;;37.72;21.70;;;7.10;99.90;;;;;;5036426;28;20049;-74
2022/01/24 14:53:07;;;;;;;31.45;18.17;;;7.00;99.90;;;;;;5036575;28;20826;-74
2022/01/24 14:55:33;;;;;;;34.83;20.25;;;7.90;99.90;;;;;;5037033;28;20839;-74
2022/01/24 14:57:58;;;;;;;36.20;21.25;;;7.00;99.90;;;;;;5036154;28;20056;-75
2022/01/24 15:00:26;;;;;;;31.05;19.20;;;7.00;99.90;;;;;;5035703;28;20635;-74
2022/01/24 15:02:54;;;;;;;31.83;18.85;;;7.00;99.90;;;;;;5067086;28;20076;-75